sensor_id;sensor_type;location;lat;lon;timestamp;P1;durP1;ratioP1;P2;durP2;ratioP2
70002;SDS011;57341;51.984;5.088;2022-07-22T00:01:25;17.65;;;3.58;;
70002;SDS011;57341;51.984;5.088;2022-07-22T00:03:52;13.18;;;3.70;;
70002;SDS011;57341;51.984;5.088;2022-07-22T00:06:19;13.32;;;3.42;;
70002;SDS011;57341;51.984;5.088;2022-07-22T00:08:46;11.68;;;3.63;;
70002;SDS011;57341;51.984;5.088;2022-07-22T00:11:12;15.70;;;3.95;;
70002;SDS011;57341;51.984;5.088;2022-07-22T00:13:39;17.70;;;4.20;;
70002;SDS011;57341;51.984;5.088;2022-07-22T00:16:06;8.45;;;2.65;;
70002;SDS011;57341;51.984;5.088;2022-07-22T00:18:33;12.40;;;3.80;;
70002;SDS011;57341;51.984;5.088;2022-07-22T00:21:00;14.32;;;4.00;;
70002;SDS011;57341;51.984;5.088;2022-07-22T00:23:27;15.77;;;4.07;;
70002;SDS011;57341;51.984;5.088;2022-07-22T00:25:55;14.48;;;4.47;;
70002;SDS011;57341;51.984;5.088;2022-07-22T00:28:22;14.77;;;4.75;;
70002;SDS011;57341;51.984;5.088;2022-07-22T00:30:49;16.23;;;4.15;;
70002;SDS011;57341;51.984;5.088;2022-07-22T00:33:20;11.75;;;3.63;;
70002;SDS011;57341;51.984;5.088;2022-07-22T00:35:49;15.88;;;4.38;;
70002;SDS011;57341;51.984;5.088;2022-07-22T00:38:16;15.25;;;4.40;;
70002;SDS011;57341;51.984;5.088;2022-07-22T00:40:43;14.30;;;4.20;;
70002;SDS011;57341;51.984;5.088;2022-07-22T00:43:10;15.50;;;4.32;;
70002;SDS011;57341;51.984;5.088;2022-07-22T00:45:37;12.90;;;4.05;;
70002;SDS011;57341;51.984;5.088;2022-07-22T00:48:04;14.13;;;4.40;;
70002;SDS011;57341;51.984;5.088;2022-07-22T00:50:32;15.00;;;4.35;;
70002;SDS011;57341;51.984;5.088;2022-07-22T00:52:59;15.07;;;3.90;;
70002;SDS011;57341;51.984;5.088;2022-07-22T00:55:27;16.98;;;4.28;;
70002;SDS011;57341;51.984;5.088;2022-07-22T00:57:55;11.40;;;3.60;;
70002;SDS011;57341;51.984;5.088;2022-07-22T01:00:22;16.48;;;4.00;;
70002;SDS011;57341;51.984;5.088;2022-07-22T01:02:50;16.52;;;4.63;;
70002;SDS011;57341;51.984;5.088;2022-07-22T01:05:17;16.13;;;4.13;;
70002;SDS011;57341;51.984;5.088;2022-07-22T01:07:45;15.48;;;4.53;;
70002;SDS011;57341;51.984;5.088;2022-07-22T01:10:12;17.08;;;4.18;;
70002;SDS011;57341;51.984;5.088;2022-07-22T01:12:40;15.45;;;3.90;;
70002;SDS011;57341;51.984;5.088;2022-07-22T01:15:10;17.52;;;4.72;;
70002;SDS011;57341;51.984;5.088;2022-07-22T01:17:38;15.07;;;4.35;;
70002;SDS011;57341;51.984;5.088;2022-07-22T01:20:07;15.30;;;3.95;;
70002;SDS011;57341;51.984;5.088;2022-07-22T01:22:34;15.65;;;4.30;;
70002;SDS011;57341;51.984;5.088;2022-07-22T01:25:02;13.65;;;4.25;;
70002;SDS011;57341;51.984;5.088;2022-07-22T01:27:29;17.88;;;4.82;;
70002;SDS011;57341;51.984;5.088;2022-07-22T01:29:56;15.65;;;4.43;;
70002;SDS011;57341;51.984;5.088;2022-07-22T01:32:24;21.08;;;3.88;;
70002;SDS011;57341;51.984;5.088;2022-07-22T01:34:51;14.63;;;5.03;;
70002;SDS011;57341;51.984;5.088;2022-07-22T01:37:18;14.32;;;3.55;;
70002;SDS011;57341;51.984;5.088;2022-07-22T01:39:45;17.05;;;4.60;;
70002;SDS011;57341;51.984;5.088;2022-07-22T01:42:12;15.10;;;4.70;;
70002;SDS011;57341;51.984;5.088;2022-07-22T01:44:40;13.75;;;4.00;;
70002;SDS011;57341;51.984;5.088;2022-07-22T01:47:08;19.52;;;4.63;;
70002;SDS011;57341;51.984;5.088;2022-07-22T01:49:35;15.70;;;4.70;;
70002;SDS011;57341;51.984;5.088;2022-07-22T01:52:03;16.20;;;4.70;;
70002;SDS011;57341;51.984;5.088;2022-07-22T01:54:33;13.82;;;4.45;;
70002;SDS011;57341;51.984;5.088;2022-07-22T01:57:00;16.67;;;4.45;;
70002;SDS011;57341;51.984;5.088;2022-07-22T01:59:28;18.65;;;4.78;;
70002;SDS011;57341;51.984;5.088;2022-07-22T02:01:57;15.10;;;3.25;;
70002;SDS011;57341;51.984;5.088;2022-07-22T02:04:24;15.18;;;3.97;;
70002;SDS011;57341;51.984;5.088;2022-07-22T02:06:53;12.00;;;3.22;;
70002;SDS011;57341;51.984;5.088;2022-07-22T02:09:20;13.13;;;3.50;;
70002;SDS011;57341;51.984;5.088;2022-07-22T02:11:51;15.48;;;3.85;;
70002;SDS011;57341;51.984;5.088;2022-07-22T02:14:18;12.20;;;4.03;;
70002;SDS011;57341;51.984;5.088;2022-07-22T02:19:15;12.27;;;3.33;;
70002;SDS011;57341;51.984;5.088;2022-07-22T02:21:44;14.65;;;3.83;;
70002;SDS011;57341;51.984;5.088;2022-07-22T02:24:11;15.57;;;3.80;;
70002;SDS011;57341;51.984;5.088;2022-07-22T02:26:38;11.35;;;3.33;;
70002;SDS011;57341;51.984;5.088;2022-07-22T02:29:06;12.20;;;3.25;;
70002;SDS011;57341;51.984;5.088;2022-07-22T02:31:32;8.48;;;2.80;;
70002;SDS011;57341;51.984;5.088;2022-07-22T02:34:00;13.02;;;3.00;;
70002;SDS011;57341;51.984;5.088;2022-07-22T02:36:28;13.18;;;3.58;;
70002;SDS011;57341;51.984;5.088;2022-07-22T02:38:56;12.43;;;2.78;;
70002;SDS011;57341;51.984;5.088;2022-07-22T02:41:23;13.02;;;2.67;;
70002;SDS011;57341;51.984;5.088;2022-07-22T02:43:54;13.05;;;3.03;;
70002;SDS011;57341;51.984;5.088;2022-07-22T02:46:22;10.98;;;3.13;;
70002;SDS011;57341;51.984;5.088;2022-07-22T02:48:51;14.00;;;3.22;;
70002;SDS011;57341;51.984;5.088;2022-07-22T02:51:20;10.80;;;3.20;;
70002;SDS011;57341;51.984;5.088;2022-07-22T02:53:48;14.68;;;3.20;;
70002;SDS011;57341;51.984;5.088;2022-07-22T02:56:15;13.82;;;2.92;;
70002;SDS011;57341;51.984;5.088;2022-07-22T02:58:42;12.10;;;3.10;;
70002;SDS011;57341;51.984;5.088;2022-07-22T03:01:10;12.68;;;2.60;;
70002;SDS011;57341;51.984;5.088;2022-07-22T03:03:45;13.18;;;2.83;;
70002;SDS011;57341;51.984;5.088;2022-07-22T03:06:12;15.82;;;3.35;;
70002;SDS011;57341;51.984;5.088;2022-07-22T03:09:00;13.70;;;3.20;;
70002;SDS011;57341;51.984;5.088;2022-07-22T03:11:28;9.48;;;2.95;;
70002;SDS011;57341;51.984;5.088;2022-07-22T03:13:55;15.63;;;4.07;;
70002;SDS011;57341;51.984;5.088;2022-07-22T03:16:22;14.23;;;3.40;;
70002;SDS011;57341;51.984;5.088;2022-07-22T03:18:50;15.63;;;3.53;;
70002;SDS011;57341;51.984;5.088;2022-07-22T03:21:17;11.07;;;3.13;;
70002;SDS011;57341;51.984;5.088;2022-07-22T03:23:44;12.88;;;3.50;;
70002;SDS011;57341;51.984;5.088;2022-07-22T03:26:12;10.38;;;3.40;;
70002;SDS011;57341;51.984;5.088;2022-07-22T03:28:39;13.57;;;3.30;;
70002;SDS011;57341;51.984;5.088;2022-07-22T03:31:06;11.27;;;3.30;;
70002;SDS011;57341;51.984;5.088;2022-07-22T03:33:33;10.88;;;3.33;;
70002;SDS011;57341;51.984;5.088;2022-07-22T03:36:01;12.02;;;3.35;;
70002;SDS011;57341;51.984;5.088;2022-07-22T03:38:28;14.25;;;3.28;;
70002;SDS011;57341;51.984;5.088;2022-07-22T03:40:56;14.32;;;3.35;;
70002;SDS011;57341;51.984;5.088;2022-07-22T03:43:23;11.15;;;3.10;;
70002;SDS011;57341;51.984;5.088;2022-07-22T03:45:50;8.57;;;2.05;;
70002;SDS011;57341;51.984;5.088;2022-07-22T03:48:18;12.07;;;2.97;;
70002;SDS011;57341;51.984;5.088;2022-07-22T03:50:45;13.73;;;3.10;;
70002;SDS011;57341;51.984;5.088;2022-07-22T03:53:13;10.90;;;2.90;;
70002;SDS011;57341;51.984;5.088;2022-07-22T03:55:40;11.50;;;2.65;;
70002;SDS011;57341;51.984;5.088;2022-07-22T03:58:07;11.60;;;2.80;;
70002;SDS011;57341;51.984;5.088;2022-07-22T04:00:34;11.27;;;2.90;;
70002;SDS011;57341;51.984;5.088;2022-07-22T04:03:04;10.07;;;3.00;;
70002;SDS011;57341;51.984;5.088;2022-07-22T04:05:50;8.93;;;2.80;;
70002;SDS011;57341;51.984;5.088;2022-07-22T04:08:27;10.32;;;3.03;;
70002;SDS011;57341;51.984;5.088;2022-07-22T04:10:54;9.75;;;2.70;;
70002;SDS011;57341;51.984;5.088;2022-07-22T04:13:21;12.20;;;3.40;;
70002;SDS011;57341;51.984;5.088;2022-07-22T04:15:54;7.95;;;2.10;;
70002;SDS011;57341;51.984;5.088;2022-07-22T04:18:22;15.40;;;3.60;;
70002;SDS011;57341;51.984;5.088;2022-07-22T04:20:49;13.02;;;3.50;;
70002;SDS011;57341;51.984;5.088;2022-07-22T04:23:35;13.27;;;3.10;;
70002;SDS011;57341;51.984;5.088;2022-07-22T04:26:15;9.70;;;2.80;;
70002;SDS011;57341;51.984;5.088;2022-07-22T04:28:42;9.07;;;2.90;;
70002;SDS011;57341;51.984;5.088;2022-07-22T04:31:09;10.82;;;2.42;;
70002;SDS011;57341;51.984;5.088;2022-07-22T04:33:39;11.48;;;2.75;;
70002;SDS011;57341;51.984;5.088;2022-07-22T04:36:06;13.30;;;3.00;;
70002;SDS011;57341;51.984;5.088;2022-07-22T04:38:34;10.95;;;2.78;;
70002;SDS011;57341;51.984;5.088;2022-07-22T04:41:03;12.40;;;2.60;;
70002;SDS011;57341;51.984;5.088;2022-07-22T04:43:30;13.90;;;3.13;;
70002;SDS011;57341;51.984;5.088;2022-07-22T04:45:57;8.68;;;2.70;;
70002;SDS011;57341;51.984;5.088;2022-07-22T04:48:28;10.13;;;2.85;;
70002;SDS011;57341;51.984;5.088;2022-07-22T04:51:00;11.10;;;2.28;;
70002;SDS011;57341;51.984;5.088;2022-07-22T04:53:29;9.27;;;2.45;;
70002;SDS011;57341;51.984;5.088;2022-07-22T04:56:11;14.77;;;2.40;;
70002;SDS011;57341;51.984;5.088;2022-07-22T04:58:38;10.95;;;2.38;;
70002;SDS011;57341;51.984;5.088;2022-07-22T05:01:05;11.65;;;2.55;;
70002;SDS011;57341;51.984;5.088;2022-07-22T05:03:32;10.25;;;2.45;;
70002;SDS011;57341;51.984;5.088;2022-07-22T05:06:02;13.05;;;2.60;;
70002;SDS011;57341;51.984;5.088;2022-07-22T05:08:35;10.00;;;2.35;;
70002;SDS011;57341;51.984;5.088;2022-07-22T05:11:02;9.13;;;2.47;;
70002;SDS011;57341;51.984;5.088;2022-07-22T05:13:31;8.82;;;2.30;;
70002;SDS011;57341;51.984;5.088;2022-07-22T05:16:02;9.23;;;2.30;;
70002;SDS011;57341;51.984;5.088;2022-07-22T05:18:34;10.95;;;2.30;;
70002;SDS011;57341;51.984;5.088;2022-07-22T05:21:01;11.55;;;2.67;;
70002;SDS011;57341;51.984;5.088;2022-07-22T05:23:29;8.95;;;2.50;;
70002;SDS011;57341;51.984;5.088;2022-07-22T05:25:56;11.25;;;2.53;;
70002;SDS011;57341;51.984;5.088;2022-07-22T05:28:24;10.75;;;2.58;;
70002;SDS011;57341;51.984;5.088;2022-07-22T05:30:51;6.95;;;2.20;;
70002;SDS011;57341;51.984;5.088;2022-07-22T13:27:08;8.95;;;3.65;;
70002;SDS011;57341;51.984;5.088;2022-07-22T13:29:35;9.10;;;3.90;;
70002;SDS011;57341;51.984;5.088;2022-07-22T13:32:02;11.80;;;5.05;;
70002;SDS011;57341;51.984;5.088;2022-07-22T13:34:49;11.02;;;4.68;;
70002;SDS011;57341;51.984;5.088;2022-07-22T13:37:17;10.55;;;4.72;;
70002;SDS011;57341;51.984;5.088;2022-07-22T13:39:43;10.40;;;4.15;;
70002;SDS011;57341;51.984;5.088;2022-07-22T13:42:13;10.68;;;5.20;;
70002;SDS011;57341;51.984;5.088;2022-07-22T13:44:40;11.77;;;4.45;;
70002;SDS011;57341;51.984;5.088;2022-07-22T13:47:06;14.00;;;5.03;;
70002;SDS011;57341;51.984;5.088;2022-07-22T13:49:34;10.90;;;4.65;;
70002;SDS011;57341;51.984;5.088;2022-07-22T13:52:01;10.70;;;4.63;;
70002;SDS011;57341;51.984;5.088;2022-07-22T13:54:32;12.07;;;4.70;;
70002;SDS011;57341;51.984;5.088;2022-07-22T13:57:00;11.75;;;5.30;;
70002;SDS011;57341;51.984;5.088;2022-07-22T13:59:28;13.00;;;4.85;;
70002;SDS011;57341;51.984;5.088;2022-07-22T14:01:56;11.48;;;4.55;;
70002;SDS011;57341;51.984;5.088;2022-07-22T14:04:24;11.00;;;4.72;;
70002;SDS011;57341;51.984;5.088;2022-07-22T14:06:51;7.05;;;2.35;;
70002;SDS011;57341;51.984;5.088;2022-07-22T14:09:19;11.25;;;4.97;;
70002;SDS011;57341;51.984;5.088;2022-07-22T14:12:02;10.27;;;4.57;;
70002;SDS011;57341;51.984;5.088;2022-07-22T14:14:29;8.05;;;3.85;;
70002;SDS011;57341;51.984;5.088;2022-07-22T14:16:57;10.82;;;4.78;;
70002;SDS011;57341;51.984;5.088;2022-07-22T14:19:29;11.68;;;5.00;;
70002;SDS011;57341;51.984;5.088;2022-07-22T14:21:56;12.73;;;4.57;;
70002;SDS011;57341;51.984;5.088;2022-07-22T14:24:23;10.45;;;4.82;;
70002;SDS011;57341;51.984;5.088;2022-07-22T14:26:51;11.15;;;5.20;;
70002;SDS011;57341;51.984;5.088;2022-07-22T14:29:19;11.05;;;4.75;;
70002;SDS011;57341;51.984;5.088;2022-07-22T14:31:48;11.32;;;4.90;;
70002;SDS011;57341;51.984;5.088;2022-07-22T14:34:15;12.73;;;4.72;;
70002;SDS011;57341;51.984;5.088;2022-07-22T14:36:45;10.57;;;4.32;;
70002;SDS011;57341;51.984;5.088;2022-07-22T14:39:13;11.98;;;5.18;;
70002;SDS011;57341;51.984;5.088;2022-07-22T14:41:40;10.77;;;5.25;;
70002;SDS011;57341;51.984;5.088;2022-07-22T14:44:07;11.10;;;4.47;;
70002;SDS011;57341;51.984;5.088;2022-07-22T14:46:34;12.02;;;5.60;;
70002;SDS011;57341;51.984;5.088;2022-07-22T14:49:01;11.77;;;5.22;;
70002;SDS011;57341;51.984;5.088;2022-07-22T14:51:29;10.98;;;5.10;;
70002;SDS011;57341;51.984;5.088;2022-07-22T14:53:56;12.75;;;5.60;;
70002;SDS011;57341;51.984;5.088;2022-07-22T14:56:24;11.90;;;4.90;;
70002;SDS011;57341;51.984;5.088;2022-07-22T14:58:51;11.15;;;5.45;;
70002;SDS011;57341;51.984;5.088;2022-07-22T15:01:17;9.40;;;4.20;;
70002;SDS011;57341;51.984;5.088;2022-07-22T15:03:52;12.13;;;5.65;;
70002;SDS011;57341;51.984;5.088;2022-07-22T15:06:19;11.23;;;5.18;;
70002;SDS011;57341;51.984;5.088;2022-07-22T15:08:47;13.27;;;5.07;;
70002;SDS011;57341;51.984;5.088;2022-07-22T15:11:14;9.98;;;4.32;;
70002;SDS011;57341;51.984;5.088;2022-07-22T15:13:41;9.23;;;2.95;;
70002;SDS011;57341;51.984;5.088;2022-07-22T15:16:09;11.70;;;4.72;;
70002;SDS011;57341;51.984;5.088;2022-07-22T15:18:37;10.45;;;4.65;;
70002;SDS011;57341;51.984;5.088;2022-07-22T15:21:04;5.40;;;1.95;;
70002;SDS011;57341;51.984;5.088;2022-07-22T15:23:31;10.82;;;5.00;;
70002;SDS011;57341;51.984;5.088;2022-07-22T15:25:59;11.43;;;5.10;;
70002;SDS011;57341;51.984;5.088;2022-07-22T15:28:27;10.77;;;4.93;;
70002;SDS011;57341;51.984;5.088;2022-07-22T15:30:59;9.52;;;4.05;;
70002;SDS011;57341;51.984;5.088;2022-07-22T15:33:26;11.10;;;4.45;;
70002;SDS011;57341;51.984;5.088;2022-07-22T15:36:01;9.63;;;3.22;;
70002;SDS011;57341;51.984;5.088;2022-07-22T15:38:32;10.00;;;3.72;;
70002;SDS011;57341;51.984;5.088;2022-07-22T15:40:59;12.15;;;3.70;;
70002;SDS011;57341;51.984;5.088;2022-07-22T15:43:26;9.77;;;3.35;;
70002;SDS011;57341;51.984;5.088;2022-07-22T15:45:53;8.50;;;3.22;;
70002;SDS011;57341;51.984;5.088;2022-07-22T15:48:20;8.63;;;3.00;;
70002;SDS011;57341;51.984;5.088;2022-07-22T15:50:47;9.88;;;3.20;;
70002;SDS011;57341;51.984;5.088;2022-07-22T15:53:15;10.05;;;3.95;;
70002;SDS011;57341;51.984;5.088;2022-07-22T15:55:42;9.05;;;3.30;;
70002;SDS011;57341;51.984;5.088;2022-07-22T15:58:09;6.45;;;2.78;;
70002;SDS011;57341;51.984;5.088;2022-07-22T16:00:55;9.60;;;2.88;;
70002;SDS011;57341;51.984;5.088;2022-07-22T16:03:22;8.20;;;3.08;;
70002;SDS011;57341;51.984;5.088;2022-07-22T16:05:53;8.40;;;3.00;;
70002;SDS011;57341;51.984;5.088;2022-07-22T16:08:21;7.38;;;2.30;;
70002;SDS011;57341;51.984;5.088;2022-07-22T16:10:49;9.77;;;3.00;;
70002;SDS011;57341;51.984;5.088;2022-07-22T16:13:16;10.70;;;3.00;;
70002;SDS011;57341;51.984;5.088;2022-07-22T16:15:43;7.57;;;2.80;;
70002;SDS011;57341;51.984;5.088;2022-07-22T16:18:10;10.05;;;2.90;;
70002;SDS011;57341;51.984;5.088;2022-07-22T16:20:41;7.90;;;2.65;;
70002;SDS011;57341;51.984;5.088;2022-07-22T16:23:09;7.50;;;2.70;;
70002;SDS011;57341;51.984;5.088;2022-07-22T16:25:36;8.88;;;2.90;;
70002;SDS011;57341;51.984;5.088;2022-07-22T16:28:03;8.52;;;2.90;;
70002;SDS011;57341;51.984;5.088;2022-07-22T16:30:31;7.88;;;2.75;;
70002;SDS011;57341;51.984;5.088;2022-07-22T16:32:58;8.25;;;2.38;;
70002;SDS011;57341;51.984;5.088;2022-07-22T16:35:25;8.60;;;3.03;;
70002;SDS011;57341;51.984;5.088;2022-07-22T16:37:52;8.48;;;3.00;;
70002;SDS011;57341;51.984;5.088;2022-07-22T16:40:27;7.82;;;2.97;;
70002;SDS011;57341;51.984;5.088;2022-07-22T16:42:54;8.27;;;3.00;;
70002;SDS011;57341;51.984;5.088;2022-07-22T16:45:21;9.35;;;2.90;;
70002;SDS011;57341;51.984;5.088;2022-07-22T16:47:53;9.57;;;3.28;;
70002;SDS011;57341;51.984;5.088;2022-07-22T16:50:20;9.68;;;3.00;;
70002;SDS011;57341;51.984;5.088;2022-07-22T16:52:51;9.35;;;3.00;;
70002;SDS011;57341;51.984;5.088;2022-07-22T16:55:18;9.55;;;3.42;;
70002;SDS011;57341;51.984;5.088;2022-07-22T16:57:48;10.75;;;3.17;;
70002;SDS011;57341;51.984;5.088;2022-07-22T17:00:18;8.90;;;3.40;;
70002;SDS011;57341;51.984;5.088;2022-07-22T17:02:45;9.20;;;3.33;;
70002;SDS011;57341;51.984;5.088;2022-07-22T17:05:12;8.43;;;3.00;;
70002;SDS011;57341;51.984;5.088;2022-07-22T17:07:39;9.90;;;3.50;;
70002;SDS011;57341;51.984;5.088;2022-07-22T17:10:07;10.43;;;3.25;;
70002;SDS011;57341;51.984;5.088;2022-07-22T17:12:35;13.18;;;3.40;;
70002;SDS011;57341;51.984;5.088;2022-07-22T17:15:02;11.85;;;3.33;;
70002;SDS011;57341;51.984;5.088;2022-07-22T17:17:30;8.93;;;3.10;;
70002;SDS011;57341;51.984;5.088;2022-07-22T17:19:57;10.32;;;3.63;;
70002;SDS011;57341;51.984;5.088;2022-07-22T17:22:24;10.80;;;3.50;;
70002;SDS011;57341;51.984;5.088;2022-07-22T17:24:53;9.02;;;3.05;;
70002;SDS011;57341;51.984;5.088;2022-07-22T17:27:21;7.78;;;3.03;;
70002;SDS011;57341;51.984;5.088;2022-07-22T17:29:52;9.27;;;3.45;;
70002;SDS011;57341;51.984;5.088;2022-07-22T17:32:20;9.77;;;3.20;;
70002;SDS011;57341;51.984;5.088;2022-07-22T17:34:47;9.80;;;3.25;;
70002;SDS011;57341;51.984;5.088;2022-07-22T17:37:14;8.20;;;3.20;;
70002;SDS011;57341;51.984;5.088;2022-07-22T17:39:42;8.95;;;3.35;;
70002;SDS011;57341;51.984;5.088;2022-07-22T17:42:10;10.02;;;3.67;;
70002;SDS011;57341;51.984;5.088;2022-07-22T17:44:37;8.43;;;3.15;;
70002;SDS011;57341;51.984;5.088;2022-07-22T17:47:04;10.93;;;3.50;;
70002;SDS011;57341;51.984;5.088;2022-07-22T17:49:32;8.98;;;3.65;;
70002;SDS011;57341;51.984;5.088;2022-07-22T17:51:59;11.35;;;3.80;;
70002;SDS011;57341;51.984;5.088;2022-07-22T17:54:26;9.75;;;3.50;;
70002;SDS011;57341;51.984;5.088;2022-07-22T17:56:53;10.73;;;3.80;;
70002;SDS011;57341;51.984;5.088;2022-07-22T17:59:20;10.02;;;3.50;;
70002;SDS011;57341;51.984;5.088;2022-07-22T18:01:47;9.10;;;3.30;;
70002;SDS011;57341;51.984;5.088;2022-07-22T18:04:14;9.75;;;3.50;;
70002;SDS011;57341;51.984;5.088;2022-07-22T18:06:41;8.65;;;3.25;;
70002;SDS011;57341;51.984;5.088;2022-07-22T18:09:08;9.93;;;3.75;;
70002;SDS011;57341;51.984;5.088;2022-07-22T18:11:35;9.82;;;3.22;;
70002;SDS011;57341;51.984;5.088;2022-07-22T18:14:02;8.80;;;3.38;;
70002;SDS011;57341;51.984;5.088;2022-07-22T18:16:32;9.38;;;2.92;;
70002;SDS011;57341;51.984;5.088;2022-07-22T18:18:59;9.32;;;3.17;;
70002;SDS011;57341;51.984;5.088;2022-07-22T18:21:27;10.48;;;3.25;;
70002;SDS011;57341;51.984;5.088;2022-07-22T18:23:55;8.40;;;3.17;;
70002;SDS011;57341;51.984;5.088;2022-07-22T18:26:25;9.52;;;3.40;;
70002;SDS011;57341;51.984;5.088;2022-07-22T18:28:52;8.50;;;3.28;;
70002;SDS011;57341;51.984;5.088;2022-07-22T18:31:19;9.40;;;3.03;;
70002;SDS011;57341;51.984;5.088;2022-07-22T18:33:46;8.65;;;2.88;;
70002;SDS011;57341;51.984;5.088;2022-07-22T18:36:13;9.23;;;2.97;;
70002;SDS011;57341;51.984;5.088;2022-07-22T18:38:40;10.00;;;3.15;;
70002;SDS011;57341;51.984;5.088;2022-07-22T18:41:12;9.55;;;2.88;;
70002;SDS011;57341;51.984;5.088;2022-07-22T18:43:40;8.43;;;2.72;;
70002;SDS011;57341;51.984;5.088;2022-07-22T18:46:07;8.40;;;2.90;;
70002;SDS011;57341;51.984;5.088;2022-07-22T18:48:34;10.27;;;3.17;;
70002;SDS011;57341;51.984;5.088;2022-07-22T18:51:01;6.95;;;2.40;;
70002;SDS011;57341;51.984;5.088;2022-07-22T18:53:29;9.50;;;2.80;;
70002;SDS011;57341;51.984;5.088;2022-07-22T18:55:57;10.10;;;2.70;;
70002;SDS011;57341;51.984;5.088;2022-07-22T18:58:24;10.73;;;2.47;;
70002;SDS011;57341;51.984;5.088;2022-07-22T19:00:51;9.40;;;3.10;;
70002;SDS011;57341;51.984;5.088;2022-07-22T19:03:18;7.20;;;2.38;;
70002;SDS011;57341;51.984;5.088;2022-07-22T19:05:52;9.40;;;2.63;;
70002;SDS011;57341;51.984;5.088;2022-07-22T19:08:19;8.13;;;2.42;;
70002;SDS011;57341;51.984;5.088;2022-07-22T19:10:46;8.05;;;2.70;;
70002;SDS011;57341;51.984;5.088;2022-07-22T19:13:13;7.40;;;2.40;;
70002;SDS011;57341;51.984;5.088;2022-07-22T19:15:41;7.22;;;2.80;;
70002;SDS011;57341;51.984;5.088;2022-07-22T19:18:08;7.53;;;2.20;;
70002;SDS011;57341;51.984;5.088;2022-07-22T19:20:35;7.00;;;2.20;;
70002;SDS011;57341;51.984;5.088;2022-07-22T19:23:02;6.88;;;2.15;;
70002;SDS011;57341;51.984;5.088;2022-07-22T19:25:29;9.02;;;2.47;;
70002;SDS011;57341;51.984;5.088;2022-07-22T19:27:56;10.05;;;3.28;;
70002;SDS011;57341;51.984;5.088;2022-07-22T19:30:23;10.70;;;3.08;;
70002;SDS011;57341;51.984;5.088;2022-07-22T19:32:50;7.70;;;2.85;;
70002;SDS011;57341;51.984;5.088;2022-07-22T19:35:17;8.43;;;2.90;;
70002;SDS011;57341;51.984;5.088;2022-07-22T19:37:44;8.02;;;3.15;;
70002;SDS011;57341;51.984;5.088;2022-07-22T19:40:11;7.70;;;2.45;;
70002;SDS011;57341;51.984;5.088;2022-07-22T19:42:39;7.15;;;2.22;;
70002;SDS011;57341;51.984;5.088;2022-07-22T19:45:06;6.78;;;2.30;;
70002;SDS011;57341;51.984;5.088;2022-07-22T19:47:34;9.18;;;2.30;;
70002;SDS011;57341;51.984;5.088;2022-07-22T19:50:01;6.32;;;2.20;;
70002;SDS011;57341;51.984;5.088;2022-07-22T19:52:28;8.90;;;2.30;;
70002;SDS011;57341;51.984;5.088;2022-07-22T19:54:55;6.57;;;2.05;;
70002;SDS011;57341;51.984;5.088;2022-07-22T19:57:21;5.65;;;2.10;;
70002;SDS011;57341;51.984;5.088;2022-07-22T19:59:48;5.97;;;1.92;;
70002;SDS011;57341;51.984;5.088;2022-07-22T20:02:18;6.80;;;2.35;;
70002;SDS011;57341;51.984;5.088;2022-07-22T20:04:48;6.30;;;2.05;;
70002;SDS011;57341;51.984;5.088;2022-07-22T20:07:14;7.18;;;2.33;;
70002;SDS011;57341;51.984;5.088;2022-07-22T20:09:42;7.05;;;2.42;;
70002;SDS011;57341;51.984;5.088;2022-07-22T20:12:09;8.13;;;2.53;;
70002;SDS011;57341;51.984;5.088;2022-07-22T20:14:39;8.55;;;2.40;;
70002;SDS011;57341;51.984;5.088;2022-07-22T20:17:06;4.47;;;2.10;;
70002;SDS011;57341;51.984;5.088;2022-07-22T20:19:33;5.97;;;2.15;;
70002;SDS011;57341;51.984;5.088;2022-07-22T20:22:01;6.72;;;1.95;;
70002;SDS011;57341;51.984;5.088;2022-07-22T20:24:28;9.82;;;2.50;;
70002;SDS011;57341;51.984;5.088;2022-07-22T20:26:55;7.28;;;2.15;;
70002;SDS011;57341;51.984;5.088;2022-07-22T20:29:22;5.53;;;2.22;;
70002;SDS011;57341;51.984;5.088;2022-07-22T20:31:49;6.50;;;2.22;;
70002;SDS011;57341;51.984;5.088;2022-07-22T20:34:17;6.57;;;2.40;;
70002;SDS011;57341;51.984;5.088;2022-07-22T20:36:45;5.28;;;2.20;;
70002;SDS011;57341;51.984;5.088;2022-07-22T20:39:13;5.68;;;2.00;;
70002;SDS011;57341;51.984;5.088;2022-07-22T20:41:40;5.35;;;1.80;;
70002;SDS011;57341;51.984;5.088;2022-07-22T20:44:07;6.55;;;2.03;;
70002;SDS011;57341;51.984;5.088;2022-07-22T20:46:34;8.35;;;2.28;;
70002;SDS011;57341;51.984;5.088;2022-07-22T20:49:01;7.07;;;2.40;;
70002;SDS011;57341;51.984;5.088;2022-07-22T20:51:29;5.55;;;2.03;;
70002;SDS011;57341;51.984;5.088;2022-07-22T20:53:56;6.53;;;2.10;;
70002;SDS011;57341;51.984;5.088;2022-07-22T20:56:23;6.60;;;2.00;;
70002;SDS011;57341;51.984;5.088;2022-07-22T20:58:50;6.10;;;2.10;;
70002;SDS011;57341;51.984;5.088;2022-07-22T21:01:17;7.55;;;2.75;;
70002;SDS011;57341;51.984;5.088;2022-07-22T21:03:44;8.82;;;2.30;;
70002;SDS011;57341;51.984;5.088;2022-07-22T21:06:11;7.35;;;2.10;;
70002;SDS011;57341;51.984;5.088;2022-07-22T21:08:38;4.63;;;2.00;;
70002;SDS011;57341;51.984;5.088;2022-07-22T21:11:05;8.52;;;2.22;;
70002;SDS011;57341;51.984;5.088;2022-07-22T21:13:32;6.35;;;2.15;;
70002;SDS011;57341;51.984;5.088;2022-07-22T21:16:02;7.57;;;2.10;;
70002;SDS011;57341;51.984;5.088;2022-07-22T21:18:29;7.68;;;2.30;;
70002;SDS011;57341;51.984;5.088;2022-07-22T21:20:56;7.38;;;2.03;;
70002;SDS011;57341;51.984;5.088;2022-07-22T21:23:23;7.78;;;2.10;;
70002;SDS011;57341;51.984;5.088;2022-07-22T21:25:50;6.35;;;2.10;;
70002;SDS011;57341;51.984;5.088;2022-07-22T21:28:17;5.47;;;2.00;;
70002;SDS011;57341;51.984;5.088;2022-07-22T21:30:46;5.68;;;2.13;;
70002;SDS011;57341;51.984;5.088;2022-07-22T21:33:19;5.57;;;1.80;;
70002;SDS011;57341;51.984;5.088;2022-07-22T21:35:47;7.97;;;1.92;;
70002;SDS011;57341;51.984;5.088;2022-07-22T21:38:14;10.38;;;2.50;;
70002;SDS011;57341;51.984;5.088;2022-07-22T21:40:41;8.82;;;2.65;;
70002;SDS011;57341;51.984;5.088;2022-07-22T21:43:08;7.68;;;2.97;;
70002;SDS011;57341;51.984;5.088;2022-07-22T21:45:35;9.20;;;3.13;;
70002;SDS011;57341;51.984;5.088;2022-07-22T21:48:02;7.30;;;2.80;;
70002;SDS011;57341;51.984;5.088;2022-07-22T21:50:30;6.28;;;2.08;;
70002;SDS011;57341;51.984;5.088;2022-07-22T21:52:57;6.32;;;2.30;;
70002;SDS011;57341;51.984;5.088;2022-07-22T21:55:24;7.28;;;2.95;;
70002;SDS011;57341;51.984;5.088;2022-07-22T21:57:51;5.60;;;2.10;;
70002;SDS011;57341;51.984;5.088;2022-07-22T22:00:18;7.32;;;2.40;;
70002;SDS011;57341;51.984;5.088;2022-07-22T22:02:45;6.32;;;2.28;;
70002;SDS011;57341;51.984;5.088;2022-07-22T22:05:12;8.63;;;2.20;;
70002;SDS011;57341;51.984;5.088;2022-07-22T22:07:39;8.90;;;2.60;;
70002;SDS011;57341;51.984;5.088;2022-07-22T22:10:06;7.15;;;2.30;;
70002;SDS011;57341;51.984;5.088;2022-07-22T22:12:33;9.02;;;2.30;;
70002;SDS011;57341;51.984;5.088;2022-07-22T22:15:00;7.60;;;2.45;;
70002;SDS011;57341;51.984;5.088;2022-07-22T22:17:27;7.00;;;2.50;;
70002;SDS011;57341;51.984;5.088;2022-07-22T22:19:55;9.20;;;2.13;;
70002;SDS011;57341;51.984;5.088;2022-07-22T22:22:22;7.60;;;2.40;;
70002;SDS011;57341;51.984;5.088;2022-07-22T22:24:49;7.78;;;2.35;;
70002;SDS011;57341;51.984;5.088;2022-07-22T22:27:19;7.70;;;2.55;;
70002;SDS011;57341;51.984;5.088;2022-07-22T22:29:46;6.93;;;2.53;;
70002;SDS011;57341;51.984;5.088;2022-07-22T22:32:14;9.82;;;2.50;;
70002;SDS011;57341;51.984;5.088;2022-07-22T22:37:10;8.50;;;2.58;;
70002;SDS011;57341;51.984;5.088;2022-07-22T22:39:37;9.55;;;2.60;;
70002;SDS011;57341;51.984;5.088;2022-07-22T22:42:04;6.72;;;2.45;;
70002;SDS011;57341;51.984;5.088;2022-07-22T22:44:31;10.45;;;2.92;;